Andover, CT (06232)

6:17 PM EDT on March 24, 2017 (GMT -0400)
Shoddy Mill Rd Andover CT | | Change Station

Elev 538 ft 41.74 °N, 72.40 °W | Updated 10 seconds ago

Overcast
Overcast
43.0 °F
Feels Like 41 °F
N
4.0
Wind Variable Wind from WSW
Gusts 7.0 mph

Today
High -- | Low -- °F
--% Chance of Precip.
Yesterday
High -- | Low -- °F
Precip. -- in
Pressure 30.14 in
Visibility 10.0 miles
Clouds Overcast 5500 ft
Windchill 41 °F
Dew Point 29 °F
Humidity 57%
Rainfall 0.00 in
Snow Depth Not available.
6:45 AM 7:06 PM
Waning Crescent, 12% visible
METAR KIJD 242152Z AUTO 21011G16KT 10SM OVC055 08/M02 A3013 RMK AO2 SLP206 T00781022
Pressure 30.14 in
Visibility 10.0 miles
Clouds Overcast 5500 ft
Windchill 41 °F
Dew Point 29 °F
Humidity 57%
Rainfall 0.00 in
Snow Depth Not available.
6:45 AM 7:06 PM
Waning Crescent, 12% visible
METAR KIJD 242152Z AUTO 21011G16KT 10SM OVC055 08/M02 A3013 RMK AO2 SLP206 T00781022

Get Severe Weather Alerts

Thanks for signing up!

Be on the lookout for a verification email in your inbox.

You'll start receiving the daily forecast at 8 AM.

×

10-Day Weather Forecast

Almanac

Astronomy

Mar. 24, 2017 Rise Set
Actual Time
Civil Twilight
Nautical Twilight
Astronomical Twilight
Moon
Length of Visible Light
Length of Day
Tomorrow will be .
, % of the Moon is Illuminated

Today's Extremes

State Highs State Lows

Community

WunderPhotos

Upload Photos

1,962,540 photos uploaded!

WunderBlog® & News

Nearby

Air Quality

  Air Quality AQ Index Pollutant
Not available.

Snow Depth

Station Depth Elevation

Earthquake Activity

City Distance Mag. Time & Date
Minimum magnitude displayed is 2.5.

Earthquake Activity

City Distance Mag. Time & Date
Minimum magnitude displayed is 2.5.

Coastal Water Temperatures

Place Temperature

Stations

Nearby Weather Stations

Station Location Temp. Windchill Dew Point Humidity Wind Precip. Elev Updated Type
                   

Watches & Warnings

There are currently no watches in effect.